createdAt,value
2019-01-31T00:01:39.332Z,96674.08
2019-01-31T00:05:25.075Z,96671.70
2019-01-31T00:08:46.450Z,96671.81
2019-01-31T00:12:12.125Z,96666.23
2019-01-31T00:15:13.679Z,96660.08
2019-01-31T00:18:23.822Z,96653.42
2019-01-31T00:21:15.868Z,96651.73
2019-01-31T00:24:41.334Z,96656.03
2019-01-31T00:27:46.730Z,96648.66
2019-01-31T00:31:01.391Z,96647.73
2019-01-31T00:34:35.866Z,96647.05
2019-01-31T00:37:32.138Z,96648.47
2019-01-31T00:41:10.235Z,96648.46
2019-01-31T00:44:20.394Z,96649.18
2019-01-31T00:47:52.901Z,96645.86
2019-01-31T00:50:57.336Z,96646.84
2019-01-31T00:53:44.442Z,96644.39
2019-01-31T00:57:19.281Z,96640.48
2019-01-31T01:00:46.883Z,96644.14
2019-01-31T01:04:04.785Z,96651.69
2019-01-31T01:07:36.048Z,96648.02
2019-01-31T01:10:49.055Z,96661.81
2019-01-31T01:14:11.890Z,96660.96
2019-01-31T01:17:39.561Z,96663.55
2019-01-31T01:20:36.512Z,96663.02
2019-01-31T01:23:54.802Z,96663.70
2019-01-31T01:26:42.180Z,96665.34
2019-01-31T01:30:18.782Z,96672.75
2019-01-31T01:34:07.683Z,96674.92
2019-01-31T01:37:03.255Z,96679.69
2019-01-31T01:40:54.052Z,96674.88
2019-01-31T01:44:01.600Z,96671.27
2019-01-31T01:47:08.714Z,96671.23
2019-01-31T01:50:25.890Z,96675.23
2019-01-31T01:53:39.514Z,96671.69
2019-01-31T01:56:43.626Z,96667.39
2019-01-31T02:00:15.922Z,96667.88
2019-01-31T02:03:41.425Z,96665.53
2019-01-31T02:06:56.701Z,96670.27
2019-01-31T02:09:51.904Z,96665.50
2019-01-31T02:13:42.233Z,96662.68
2019-01-31T02:17:02.538Z,96663.59
2019-01-31T02:20:34.776Z,96657.88
2019-01-31T02:23:44.171Z,96654.12
2019-01-31T02:27:21.755Z,96653.91
2019-01-31T02:30:45.764Z,96650.87
2019-01-31T02:34:27.031Z,96645.63
2019-01-31T02:38:10.294Z,96647.77
2019-01-31T02:41:30.617Z,96641.14
2019-01-31T02:44:47.155Z,96637.98
2019-01-31T02:47:52.246Z,96639.39
2019-01-31T02:51:09.058Z,96636.02
2019-01-31T02:54:34.570Z,96638.47
2019-01-31T02:58:10.225Z,96631.08
2019-01-31T03:01:22.112Z,96635.05
2019-01-31T03:04:53.660Z,96628.20
2019-01-31T03:08:10.430Z,96634.98
2019-01-31T03:11:12.477Z,96630.28
2019-01-31T03:14:29.708Z,96624.95
2019-01-31T03:17:56.548Z,96630.56
2019-01-31T03:21:14.040Z,96632.87
2019-01-31T03:24:31.553Z,96626.75
2019-01-31T03:27:41.556Z,96626.50
2019-01-31T03:31:11.825Z,96627.45
2019-01-31T03:34:33.244Z,96622.63
2019-01-31T03:37:53.108Z,96614.39
2019-01-31T03:41:00.788Z,96620.44
2019-01-31T03:44:01.528Z,96618.25
2019-01-31T03:47:30.633Z,96620.89
2019-01-31T03:51:19.323Z,96626.63
2019-01-31T03:54:36.909Z,96628.86
2019-01-31T03:58:00.365Z,96624.13
2019-01-31T04:01:35.108Z,96626.97
2019-01-31T04:04:18.497Z,96625.72
2019-01-31T04:06:50.322Z,96625.82
2019-01-31T04:09:22.119Z,96623.02
2019-01-31T04:11:54.242Z,96626.61
2019-01-31T04:14:27.424Z,96624.31
2019-01-31T04:16:59.325Z,96626.52
2019-01-31T04:19:31.248Z,96627.10
2019-01-31T04:22:03.352Z,96628.84
2019-01-31T04:24:35.229Z,96628.30
2019-01-31T04:27:07.060Z,96632.31
2019-01-31T04:29:39.098Z,96628.49
2019-01-31T04:32:11.142Z,96625.91
2019-01-31T04:34:42.919Z,96626.98
2019-01-31T04:37:14.791Z,96622.06
2019-01-31T04:39:46.550Z,96624.39
2019-01-31T04:42:18.711Z,96622.45
2019-01-31T04:44:50.862Z,96624.07
2019-01-31T04:47:22.653Z,96626.40
2019-01-31T04:49:54.402Z,96621.80
2019-01-31T04:52:26.553Z,96622.19
2019-01-31T04:54:58.580Z,96627.36
2019-01-31T04:57:30.451Z,96621.09
2019-01-31T05:00:02.551Z,96619.80
2019-01-31T05:02:34.536Z,96626.27
2019-01-31T05:05:07.456Z,96622.36
2019-01-31T05:07:38.646Z,96616.30
2019-01-31T05:10:12.671Z,96610.08
2019-01-31T05:12:44.808Z,96607.97
2019-01-31T05:15:16.840Z,96618.41
2019-01-31T05:17:48.614Z,96615.17
2019-01-31T05:20:20.368Z,96617.67
2019-01-31T05:22:52.142Z,96621.31
2019-01-31T05:25:23.888Z,96613.05
2019-01-31T05:27:55.768Z,96625.91
2019-01-31T05:30:28.152Z,96619.70
2019-01-31T05:33:00.457Z,96625.56
2019-01-31T05:35:32.281Z,96620.62
2019-01-31T05:38:04.564Z,96621.36
2019-01-31T05:40:36.616Z,96621.60
2019-01-31T05:43:08.435Z,96618.17
2019-01-31T05:45:40.192Z,96619.73
2019-01-31T05:48:11.968Z,96617.83
2019-01-31T05:50:43.847Z,96621.61
2019-01-31T05:53:16.047Z,96625.04
2019-01-31T05:55:48.104Z,96621.16
2019-01-31T05:58:19.909Z,96627.20
2019-01-31T06:00:51.737Z,96624.33
2019-01-31T06:03:23.556Z,96619.09
2019-01-31T06:05:55.458Z,96626.88
2019-01-31T06:08:27.345Z,96628.25
2019-01-31T06:11:07.078Z,96624.03
2019-01-31T06:13:32.653Z,96618.45
2019-01-31T06:16:06.724Z,96618.45
2019-01-31T06:18:38.216Z,96624.45
2019-01-31T06:21:10.029Z,96619.47
2019-01-31T06:23:41.793Z,96620.41
2019-01-31T06:26:13.581Z,96615.27
2019-01-31T06:28:45.825Z,96613.12
2019-01-31T06:31:17.975Z,96612.41
2019-01-31T06:33:49.727Z,96609.39
2019-01-31T06:36:21.525Z,96609.44
2019-01-31T06:38:53.351Z,96609.47
2019-01-31T06:41:25.532Z,96600.45
2019-01-31T06:43:57.910Z,96599.93
2019-01-31T06:46:30.073Z,96609.05
2019-01-31T06:49:01.922Z,96593.43
2019-01-31T06:51:33.985Z,96591.89
2019-01-31T06:54:07.811Z,96601.17
2019-01-31T06:56:39.590Z,96604.64
2019-01-31T06:59:11.466Z,96607.37
2019-01-31T07:01:43.387Z,96609.40
2019-01-31T07:04:15.424Z,96616.44
2019-01-31T07:06:47.588Z,96618.27
2019-01-31T07:09:19.611Z,96617.73
2019-01-31T07:11:51.385Z,96624.53
2019-01-31T07:14:23.514Z,96628.00
2019-01-31T07:16:55.863Z,96621.03
2019-01-31T07:19:27.897Z,96619.07
2019-01-31T07:22:00.403Z,96623.73
2019-01-31T07:24:32.482Z,96627.80
2019-01-31T07:27:04.269Z,96629.90
2019-01-31T07:29:36.124Z,96631.47
2019-01-31T07:32:08.384Z,96633.81
2019-01-31T07:34:40.459Z,96630.03
2019-01-31T07:37:12.270Z,96626.60
2019-01-31T07:39:44.027Z,96633.94
2019-01-31T07:42:16.100Z,96626.95
2019-01-31T07:44:47.960Z,96627.86
2019-01-31T07:47:20.042Z,96630.70
2019-01-31T07:49:52.055Z,96636.97
2019-01-31T07:52:23.871Z,96631.14
2019-01-31T07:54:55.996Z,96625.45
2019-01-31T07:57:28.029Z,96628.42
2019-01-31T07:59:59.782Z,96628.17
2019-01-31T08:02:31.665Z,96629.91
2019-01-31T08:05:03.424Z,96632.77
2019-01-31T08:07:35.301Z,96630.83
2019-01-31T08:10:11.749Z,96632.95
2019-01-31T08:12:43.565Z,96632.64
2019-01-31T08:15:17.374Z,96630.70
2019-01-31T08:17:49.501Z,96623.76
2019-01-31T08:20:21.281Z,96622.68
2019-01-31T08:22:53.123Z,96621.30
2019-01-31T08:25:25.042Z,96624.08
2019-01-31T08:27:57.154Z,96625.23
2019-01-31T08:30:32.796Z,96617.80
2019-01-31T08:33:04.561Z,96610.97
2019-01-31T08:35:36.749Z,96612.61
2019-01-31T08:38:08.894Z,96611.36
2019-01-31T08:40:40.827Z,96609.25
2019-01-31T08:43:12.638Z,96617.86
2019-01-31T08:45:44.530Z,96621.79
2019-01-31T08:48:16.314Z,96616.59
2019-01-31T08:50:48.115Z,96623.00
2019-01-31T08:53:19.954Z,96627.03
2019-01-31T08:55:51.713Z,96627.59
2019-01-31T08:58:23.877Z,96632.19
2019-01-31T09:00:56.343Z,96630.86
2019-01-31T09:03:28.420Z,96623.87
2019-01-31T09:06:00.176Z,96615.23
2019-01-31T09:08:31.964Z,96619.54
2019-01-31T09:11:03.717Z,96619.98
2019-01-31T09:13:38.060Z,96619.83
2019-01-31T09:16:09.285Z,96617.97
2019-01-31T09:18:41.070Z,96622.81
2019-01-31T09:21:52.297Z,96617.48
2019-01-31T09:25:14.748Z,96628.36
2019-01-31T09:28:17.729Z,96625.44
2019-01-31T09:31:38.426Z,96629.30
2019-01-31T09:34:57.371Z,96626.13
2019-01-31T09:38:00.009Z,96630.70
2019-01-31T09:41:05.085Z,96634.47
2019-01-31T09:44:46.358Z,96630.48
2019-01-31T09:48:03.315Z,96633.09
2019-01-31T09:51:11.223Z,96636.77
2019-01-31T09:54:39.586Z,96639.73
2019-01-31T09:58:11.220Z,96635.55
2019-01-31T10:01:31.553Z,96633.10
2019-01-31T10:04:43.241Z,96628.49
2019-01-31T10:08:07.834Z,96630.34
2019-01-31T10:11:24.238Z,96631.12
2019-01-31T10:14:40.759Z,96631.38
2019-01-31T10:18:07.018Z,96621.77
2019-01-31T10:21:39.180Z,96621.47
2019-01-31T10:25:20.073Z,96620.44
2019-01-31T10:28:47.105Z,96617.86
2019-01-31T10:32:03.699Z,96607.70
2019-01-31T10:35:09.802Z,96601.72
2019-01-31T10:38:15.092Z,96600.67
2019-01-31T10:42:02.794Z,96603.30
2019-01-31T10:45:33.621Z,96597.97
2019-01-31T10:49:03.185Z,96591.86
2019-01-31T10:52:09.571Z,96580.55
2019-01-31T10:55:03.333Z,96580.69
2019-01-31T10:58:51.035Z,96577.86
2019-01-31T11:02:32.255Z,96570.92
2019-01-31T11:06:06.274Z,96569.49
2019-01-31T11:09:26.600Z,96566.07
2019-01-31T11:12:45.006Z,96567.53
2019-01-31T11:16:18.904Z,96566.62
2019-01-31T11:19:50.828Z,96560.73
2019-01-31T11:23:19.995Z,96573.49
2019-01-31T11:26:53.725Z,96558.90
2019-01-31T11:30:32.456Z,96562.86
2019-01-31T11:34:17.096Z,96551.81
2019-01-31T11:37:18.481Z,96543.03
2019-01-31T11:41:17.969Z,96546.97
2019-01-31T11:44:33.246Z,96539.72
2019-01-31T11:48:06.478Z,96536.09
2019-01-31T11:51:54.230Z,96527.92
2019-01-31T11:55:41.407Z,96525.39
2019-01-31T11:59:00.860Z,96522.11
2019-01-31T12:01:33.807Z,96519.09
2019-01-31T12:04:13.495Z,96518.92
2019-01-31T12:06:45.835Z,96514.80
2019-01-31T12:09:22.644Z,96516.20
2019-01-31T12:11:54.978Z,96515.84
2019-01-31T12:14:27.281Z,96508.08
2019-01-31T12:16:59.965Z,96501.72
2019-01-31T12:19:31.726Z,96495.94
2019-01-31T12:22:04.058Z,96485.66
2019-01-31T12:24:36.411Z,96483.06
2019-01-31T12:27:08.903Z,96476.17
2019-01-31T12:29:41.224Z,96481.20
2019-01-31T12:32:13.895Z,96473.75
2019-01-31T12:34:45.926Z,96464.30
2019-01-31T12:37:18.355Z,96469.23
2019-01-31T12:39:52.145Z,96463.84
2019-01-31T12:42:24.727Z,96456.24
2019-01-31T12:44:57.040Z,96452.81
2019-01-31T12:47:29.682Z,96448.52
2019-01-31T12:50:01.494Z,96444.42
2019-01-31T12:52:33.823Z,96443.93
2019-01-31T12:55:06.600Z,96445.23
2019-01-31T12:57:38.664Z,96442.27
2019-01-31T13:00:22.801Z,96438.30
2019-01-31T13:02:55.454Z,96433.75
2019-01-31T13:05:27.215Z,96433.39
2019-01-31T13:07:59.557Z,96427.31
2019-01-31T13:10:32.311Z,96433.41
2019-01-31T13:13:04.369Z,96424.35
2019-01-31T13:15:36.704Z,96417.60
2019-01-31T13:18:09.006Z,96419.95
2019-01-31T13:20:41.343Z,96416.84
2019-01-31T13:23:13.730Z,96414.98
2019-01-31T13:25:46.275Z,96406.66
2019-01-31T13:28:18.232Z,96408.38
2019-01-31T13:30:50.615Z,96414.83
2019-01-31T13:33:23.274Z,96410.93
2019-01-31T13:35:55.573Z,96412.33
2019-01-31T13:38:27.748Z,96409.70
2019-01-31T13:41:00.462Z,96408.51
2019-01-31T13:43:32.586Z,96406.74
2019-01-31T13:46:05.382Z,96405.93
2019-01-31T13:48:37.566Z,96399.74
2019-01-31T13:51:11.118Z,96398.93
2019-01-31T13:53:42.002Z,96395.60
2019-01-31T13:56:13.671Z,96397.12
2019-01-31T13:58:46.378Z,96404.64
2019-01-31T14:01:18.733Z,96403.37
2019-01-31T14:03:50.505Z,96405.67
2019-01-31T14:06:23.072Z,96397.84
2019-01-31T14:08:54.818Z,96401.66
2019-01-31T14:11:27.477Z,96407.72
2019-01-31T14:14:08.730Z,96404.11
2019-01-31T14:16:33.286Z,96397.44
2019-01-31T14:19:05.712Z,96406.42
2019-01-31T14:21:38.127Z,96412.29
2019-01-31T14:24:10.562Z,96411.69
2019-01-31T14:26:42.948Z,96407.16
2019-01-31T14:29:15.265Z,96404.44
2019-01-31T14:31:47.619Z,96414.65
2019-01-31T14:34:20.226Z,96406.76
2019-01-31T14:36:52.092Z,96414.32
2019-01-31T14:39:24.759Z,96419.77
2019-01-31T14:41:56.803Z,96417.92
2019-01-31T14:44:29.127Z,96424.11
2019-01-31T14:47:01.747Z,96418.64
2019-01-31T14:49:33.501Z,96426.31
2019-01-31T14:52:06.123Z,96424.05
2019-01-31T14:54:37.867Z,96422.00
2019-01-31T14:57:10.430Z,96415.17
2019-01-31T14:59:42.227Z,96414.92
2019-01-31T15:02:14.561Z,96410.39
2019-01-31T15:04:46.926Z,96415.48
2019-01-31T15:07:19.453Z,96414.99
2019-01-31T15:09:53.608Z,96415.66
2019-01-31T15:12:26.055Z,96414.19
2019-01-31T15:14:58.487Z,96409.73
2019-01-31T15:17:30.827Z,96412.16
2019-01-31T15:20:03.142Z,96409.02
2019-01-31T15:22:35.524Z,96409.66
2019-01-31T15:25:08.365Z,96411.44
2019-01-31T15:27:42.178Z,96414.75
2019-01-31T15:30:18.739Z,96404.50
2019-01-31T15:32:51.060Z,96406.66
2019-01-31T15:35:23.379Z,96398.42
2019-01-31T15:37:55.724Z,96397.11
2019-01-31T15:40:34.581Z,96403.08
2019-01-31T15:43:07.052Z,96404.00
2019-01-31T15:45:39.424Z,96409.20
2019-01-31T15:48:12.240Z,96413.58
2019-01-31T15:50:44.409Z,96418.55
2019-01-31T15:53:16.733Z,96416.72
2019-01-31T15:55:49.149Z,96420.13
2019-01-31T15:58:22.328Z,96421.25
2019-01-31T16:00:58.568Z,96419.25
2019-01-31T16:03:30.998Z,96419.51
2019-01-31T16:06:03.416Z,96420.76
2019-01-31T16:08:35.755Z,96429.05
2019-01-31T16:11:08.189Z,96426.45
2019-01-31T16:13:40.905Z,96427.61
2019-01-31T16:16:13.010Z,96424.73
2019-01-31T16:18:45.329Z,96430.34
2019-01-31T16:21:17.729Z,96429.19
2019-01-31T16:23:50.149Z,96436.55
2019-01-31T16:26:22.632Z,96430.08
2019-01-31T16:28:55.303Z,96425.10
2019-01-31T16:31:27.053Z,96428.81
2019-01-31T16:33:59.391Z,96428.09
2019-01-31T16:36:31.694Z,96432.56
2019-01-31T16:39:04.260Z,96431.63
2019-01-31T16:41:36.155Z,96434.97
2019-01-31T16:44:10.431Z,96424.86
2019-01-31T16:46:42.807Z,96433.42
2019-01-31T16:49:15.127Z,96432.01
2019-01-31T16:51:47.819Z,96430.14
2019-01-31T16:54:19.861Z,96430.72
2019-01-31T16:56:52.509Z,96430.08
2019-01-31T16:59:24.548Z,96435.40
2019-01-31T17:01:57.117Z,96428.98
2019-01-31T17:04:29.457Z,96429.59
2019-01-31T17:07:01.825Z,96434.95
2019-01-31T17:09:33.707Z,96435.45
2019-01-31T17:12:06.189Z,96432.56
2019-01-31T17:14:38.576Z,96428.11
2019-01-31T17:17:10.346Z,96427.16
2019-01-31T17:19:42.202Z,96430.45
2019-01-31T17:22:14.381Z,96435.27
2019-01-31T17:24:46.468Z,96430.17
2019-01-31T17:27:20.602Z,96427.77
2019-01-31T17:29:51.745Z,96422.27
2019-01-31T17:32:24.078Z,96427.64
2019-01-31T17:34:55.910Z,96423.24
2019-01-31T17:37:27.731Z,96418.02
2019-01-31T17:39:59.608Z,96420.77
2019-01-31T17:42:32.104Z,96415.53
2019-01-31T17:45:04.600Z,96414.78
2019-01-31T17:47:36.696Z,96416.98
2019-01-31T17:50:10.766Z,96413.33
2019-01-31T17:52:42.618Z,96414.91
2019-01-31T17:55:17.772Z,96411.67
2019-01-31T17:57:49.537Z,96407.52
2019-01-31T18:00:30.514Z,96411.80
2019-01-31T18:03:02.272Z,96410.66
2019-01-31T18:05:34.154Z,96407.08
2019-01-31T18:08:09.051Z,96404.42
2019-01-31T18:10:39.519Z,96395.75
2019-01-31T18:13:11.270Z,96390.03
2019-01-31T18:15:46.513Z,96390.66
2019-01-31T18:18:18.265Z,96391.52
2019-01-31T18:20:50.030Z,96394.17
2019-01-31T18:23:21.851Z,96397.36
2019-01-31T18:25:53.700Z,96402.64
2019-01-31T18:28:25.515Z,96405.64
2019-01-31T18:30:57.330Z,96404.26
2019-01-31T18:33:29.162Z,96406.66
2019-01-31T18:36:00.983Z,96403.34
2019-01-31T18:38:32.922Z,96403.80
2019-01-31T18:41:04.717Z,96398.32
2019-01-31T18:43:37.800Z,96400.40
2019-01-31T18:46:08.696Z,96391.56
2019-01-31T18:48:40.411Z,96395.27
2019-01-31T18:51:12.507Z,96399.00
2019-01-31T18:53:44.789Z,96393.84
2019-01-31T18:56:17.264Z,96388.88
2019-01-31T18:58:49.861Z,96393.39
2019-01-31T19:01:22.044Z,96390.23
2019-01-31T19:03:53.801Z,96388.48
2019-01-31T19:06:25.760Z,96386.31
2019-01-31T19:08:57.581Z,96381.53
2019-01-31T19:11:29.355Z,96379.89
2019-01-31T19:14:01.888Z,96386.15
2019-01-31T19:16:34.052Z,96377.67
2019-01-31T19:19:06.183Z,96380.12
2019-01-31T19:21:38.331Z,96374.20
2019-01-31T19:24:10.505Z,96379.66
2019-01-31T19:26:42.639Z,96378.44
2019-01-31T19:29:14.578Z,96379.19
2019-01-31T19:31:46.399Z,96372.94
2019-01-31T19:34:18.529Z,96371.91
2019-01-31T19:36:50.722Z,96366.50
2019-01-31T19:39:22.493Z,96352.78
2019-01-31T19:41:54.443Z,96345.05
2019-01-31T19:44:26.244Z,96348.95
2019-01-31T19:46:58.097Z,96339.72
2019-01-31T19:49:29.898Z,96335.42
2019-01-31T19:52:02.024Z,96344.70
2019-01-31T19:54:34.703Z,96345.38
2019-01-31T19:57:06.908Z,96343.95
2019-01-31T19:59:38.721Z,96342.29
2019-01-31T20:02:10.589Z,96334.55
2019-01-31T20:04:42.362Z,96329.44
2019-01-31T20:07:14.553Z,96329.25
2019-01-31T20:09:47.233Z,96323.55
2019-01-31T20:12:19.295Z,96322.91
2019-01-31T20:14:51.435Z,96314.63
2019-01-31T20:17:23.225Z,96321.03
2019-01-31T20:19:55.484Z,96315.61
2019-01-31T20:22:27.543Z,96312.06
2019-01-31T20:24:59.802Z,96317.70
2019-01-31T20:27:32.295Z,96307.34
2019-01-31T20:30:05.467Z,96311.16
2019-01-31T20:32:37.499Z,96310.00
2019-01-31T20:35:11.368Z,96307.28
2019-01-31T20:37:43.319Z,96307.52
2019-01-31T20:40:18.619Z,96309.77
2019-01-31T20:42:50.407Z,96306.36
2019-01-31T20:45:25.121Z,96312.28
2019-01-31T20:47:56.927Z,96318.54
2019-01-31T20:50:31.621Z,96308.38
2019-01-31T20:53:03.481Z,96306.13
2019-01-31T20:55:35.305Z,96306.28
2019-01-31T20:58:07.872Z,96297.20
2019-01-31T21:00:49.416Z,96298.01
2019-01-31T21:03:24.635Z,96285.53
2019-01-31T21:05:55.171Z,96285.05
2019-01-31T21:08:27.059Z,96278.67
2019-01-31T21:10:58.847Z,96280.45
2019-01-31T21:13:30.635Z,96275.95
2019-01-31T21:16:02.498Z,96269.47
2019-01-31T21:18:34.550Z,96272.20
2019-01-31T21:21:06.348Z,96267.11
2019-01-31T21:23:38.186Z,96262.85
2019-01-31T21:26:10.965Z,96257.67
2019-01-31T21:28:43.161Z,96247.28
2019-01-31T21:31:15.161Z,96242.78
2019-01-31T21:33:46.942Z,96232.27
2019-01-31T21:36:18.715Z,96223.41
2019-01-31T21:38:50.568Z,96225.55
2019-01-31T21:41:22.338Z,96224.77
2019-01-31T21:43:54.220Z,96230.88
2019-01-31T21:46:26.061Z,96230.04
2019-01-31T21:48:57.858Z,96227.94
2019-01-31T21:51:29.614Z,96227.47
2019-01-31T21:54:01.440Z,96221.39
2019-01-31T21:56:33.500Z,96218.30
2019-01-31T21:59:05.354Z,96207.66
2019-01-31T22:01:37.414Z,96205.29
2019-01-31T22:04:09.210Z,96198.74
2019-01-31T22:06:41.071Z,96213.20
2019-01-31T22:09:12.849Z,96207.45
2019-01-31T22:11:44.604Z,96201.38
2019-01-31T22:14:16.446Z,96188.75
2019-01-31T22:16:49.371Z,96188.37
2019-01-31T22:19:21.581Z,96192.02
2019-01-31T22:21:56.064Z,96193.31
2019-01-31T22:24:27.864Z,96188.13
2019-01-31T22:26:59.741Z,96183.46
2019-01-31T22:29:31.564Z,96181.36
2019-01-31T22:32:03.402Z,96188.38
2019-01-31T22:34:36.208Z,96185.02
2019-01-31T22:37:08.249Z,96180.59
2019-01-31T22:39:40.303Z,96179.23
2019-01-31T22:42:12.979Z,96176.73
2019-01-31T22:44:44.931Z,96168.60
2019-01-31T22:47:25.886Z,96167.52
2019-01-31T22:49:50.419Z,96164.50
2019-01-31T22:52:22.277Z,96160.39
2019-01-31T22:54:54.368Z,96156.72
2019-01-31T22:57:26.139Z,96152.35
2019-01-31T22:59:57.913Z,96151.65
2019-01-31T23:02:29.741Z,96142.04
2019-01-31T23:05:01.533Z,96146.71
2019-01-31T23:07:33.764Z,96152.95
2019-01-31T23:10:07.072Z,96142.06
2019-01-31T23:12:37.855Z,96141.03
2019-01-31T23:15:10.230Z,96136.89
2019-01-31T23:17:42.720Z,96129.84
2019-01-31T23:20:14.954Z,96133.91
2019-01-31T23:22:46.858Z,96132.94
2019-01-31T23:25:18.647Z,96129.06
2019-01-31T23:27:50.559Z,96115.00
2019-01-31T23:30:22.505Z,96102.77
2019-01-31T23:32:54.399Z,96108.41
2019-01-31T23:35:26.181Z,96107.23
2019-01-31T23:37:58.017Z,96109.17
2019-01-31T23:40:29.824Z,96105.26
2019-01-31T23:43:01.912Z,96104.83
2019-01-31T23:45:34.088Z,96097.64
2019-01-31T23:48:06.081Z,96098.48
2019-01-31T23:50:38.061Z,96095.04
2019-01-31T23:53:09.860Z,96086.48
2019-01-31T23:55:41.883Z,96082.02
2019-01-31T23:58:13.714Z,96073.79
